sensor_id;sensor_type;location;lat;lon;timestamp;P1;durP1;ratioP1;P2;durP2;ratioP2
71083;SDS011;58741;52.672;13.548;2024-01-30T00:01:57;5.95;;;3.00;;
71083;SDS011;58741;52.672;13.548;2024-01-30T00:04:24;4.10;;;2.60;;
71083;SDS011;58741;52.672;13.548;2024-01-30T00:06:51;4.40;;;2.50;;
71083;SDS011;58741;52.672;13.548;2024-01-30T00:09:19;4.32;;;2.30;;
71083;SDS011;58741;52.672;13.548;2024-01-30T00:11:46;5.20;;;2.53;;
71083;SDS011;58741;52.672;13.548;2024-01-30T00:14:12;6.93;;;2.88;;
71083;SDS011;58741;52.672;13.548;2024-01-30T00:16:40;7.07;;;3.10;;
71083;SDS011;58741;52.672;13.548;2024-01-30T00:19:06;6.55;;;2.70;;
71083;SDS011;58741;52.672;13.548;2024-01-30T00:21:34;5.85;;;2.70;;
71083;SDS011;58741;52.672;13.548;2024-01-30T00:24:01;4.65;;;2.30;;
71083;SDS011;58741;52.672;13.548;2024-01-30T00:26:28;5.30;;;2.50;;
71083;SDS011;58741;52.672;13.548;2024-01-30T00:28:55;5.38;;;2.65;;
71083;SDS011;58741;52.672;13.548;2024-01-30T00:31:21;4.70;;;2.40;;
71083;SDS011;58741;52.672;13.548;2024-01-30T00:33:48;5.53;;;2.25;;
71083;SDS011;58741;52.672;13.548;2024-01-30T00:36:15;3.97;;;2.45;;
71083;SDS011;58741;52.672;13.548;2024-01-30T00:38:41;5.20;;;2.90;;
71083;SDS011;58741;52.672;13.548;2024-01-30T00:41:09;8.88;;;3.28;;
71083;SDS011;58741;52.672;13.548;2024-01-30T00:43:36;5.68;;;2.53;;
71083;SDS011;58741;52.672;13.548;2024-01-30T00:46:02;8.23;;;3.08;;
71083;SDS011;58741;52.672;13.548;2024-01-30T00:48:29;5.88;;;2.72;;
71083;SDS011;58741;52.672;13.548;2024-01-30T00:50:56;6.15;;;2.85;;
71083;SDS011;58741;52.672;13.548;2024-01-30T00:53:22;4.85;;;2.55;;
71083;SDS011;58741;52.672;13.548;2024-01-30T00:55:49;5.72;;;3.00;;
71083;SDS011;58741;52.672;13.548;2024-01-30T00:58:16;6.75;;;2.85;;
71083;SDS011;58741;52.672;13.548;2024-01-30T01:00:42;5.57;;;2.63;;
71083;SDS011;58741;52.672;13.548;2024-01-30T01:03:09;5.85;;;2.90;;
71083;SDS011;58741;52.672;13.548;2024-01-30T01:05:36;4.75;;;2.10;;
71083;SDS011;58741;52.672;13.548;2024-01-30T01:08:03;3.90;;;2.72;;
71083;SDS011;58741;52.672;13.548;2024-01-30T01:10:30;4.60;;;2.15;;
71083;SDS011;58741;52.672;13.548;2024-01-30T01:12:56;6.22;;;2.58;;
71083;SDS011;58741;52.672;13.548;2024-01-30T01:15:24;5.30;;;2.78;;
71083;SDS011;58741;52.672;13.548;2024-01-30T01:17:55;6.28;;;2.80;;
71083;SDS011;58741;52.672;13.548;2024-01-30T01:20:22;5.55;;;2.35;;
71083;SDS011;58741;52.672;13.548;2024-01-30T01:22:48;4.68;;;2.42;;
71083;SDS011;58741;52.672;13.548;2024-01-30T01:25:15;4.22;;;2.55;;
71083;SDS011;58741;52.672;13.548;2024-01-30T01:27:42;5.68;;;2.80;;
71083;SDS011;58741;52.672;13.548;2024-01-30T01:30:10;5.18;;;2.53;;
71083;SDS011;58741;52.672;13.548;2024-01-30T01:32:39;3.97;;;2.25;;
71083;SDS011;58741;52.672;13.548;2024-01-30T01:35:11;4.82;;;2.30;;
71083;SDS011;58741;52.672;13.548;2024-01-30T01:37:38;7.28;;;2.85;;
71083;SDS011;58741;52.672;13.548;2024-01-30T01:40:04;5.35;;;2.13;;
71083;SDS011;58741;52.672;13.548;2024-01-30T01:42:32;7.57;;;2.30;;
71083;SDS011;58741;52.672;13.548;2024-01-30T01:44:59;3.97;;;2.22;;
71083;SDS011;58741;52.672;13.548;2024-01-30T01:47:25;6.90;;;2.50;;
71083;SDS011;58741;52.672;13.548;2024-01-30T01:49:52;7.10;;;2.25;;
71083;SDS011;58741;52.672;13.548;2024-01-30T01:52:19;3.25;;;2.00;;
71083;SDS011;58741;52.672;13.548;2024-01-30T01:54:46;4.97;;;2.67;;
71083;SDS011;58741;52.672;13.548;2024-01-30T01:57:13;4.53;;;2.60;;
71083;SDS011;58741;52.672;13.548;2024-01-30T01:59:39;3.90;;;2.13;;
71083;SDS011;58741;52.672;13.548;2024-01-30T02:02:06;4.20;;;2.08;;
71083;SDS011;58741;52.672;13.548;2024-01-30T02:04:37;4.55;;;2.25;;
71083;SDS011;58741;52.672;13.548;2024-01-30T02:07:04;4.15;;;2.50;;
71083;SDS011;58741;52.672;13.548;2024-01-30T02:09:31;4.55;;;2.38;;
71083;SDS011;58741;52.672;13.548;2024-01-30T02:11:57;5.43;;;2.60;;
71083;SDS011;58741;52.672;13.548;2024-01-30T02:14:24;4.97;;;2.60;;
71083;SDS011;58741;52.672;13.548;2024-01-30T02:16:54;6.05;;;2.83;;
71083;SDS011;58741;52.672;13.548;2024-01-30T02:19:20;4.68;;;2.67;;
71083;SDS011;58741;52.672;13.548;2024-01-30T02:21:47;5.55;;;2.45;;
71083;SDS011;58741;52.672;13.548;2024-01-30T02:24:14;5.55;;;2.67;;
71083;SDS011;58741;52.672;13.548;2024-01-30T02:26:41;5.35;;;2.70;;
71083;SDS011;58741;52.672;13.548;2024-01-30T02:29:08;3.85;;;2.30;;
71083;SDS011;58741;52.672;13.548;2024-01-30T02:31:34;4.95;;;2.80;;
71083;SDS011;58741;52.672;13.548;2024-01-30T02:34:01;6.53;;;2.88;;
71083;SDS011;58741;52.672;13.548;2024-01-30T02:36:28;3.70;;;2.17;;
71083;SDS011;58741;52.672;13.548;2024-01-30T02:38:54;3.75;;;2.58;;
71083;SDS011;58741;52.672;13.548;2024-01-30T02:41:21;5.93;;;2.85;;
71083;SDS011;58741;52.672;13.548;2024-01-30T02:43:48;5.45;;;2.80;;
71083;SDS011;58741;52.672;13.548;2024-01-30T02:46:14;5.75;;;2.58;;
71083;SDS011;58741;52.672;13.548;2024-01-30T02:48:41;5.82;;;2.55;;
71083;SDS011;58741;52.672;13.548;2024-01-30T02:51:08;3.83;;;2.08;;
71083;SDS011;58741;52.672;13.548;2024-01-30T02:53:34;8.25;;;2.10;;
71083;SDS011;58741;52.672;13.548;2024-01-30T02:56:02;5.90;;;2.80;;
71083;SDS011;58741;52.672;13.548;2024-01-30T02:58:29;5.90;;;2.63;;
71083;SDS011;58741;52.672;13.548;2024-01-30T03:00:56;3.58;;;2.10;;
71083;SDS011;58741;52.672;13.548;2024-01-30T03:03:22;3.83;;;2.33;;
71083;SDS011;58741;52.672;13.548;2024-01-30T03:05:49;3.97;;;2.50;;
71083;SDS011;58741;52.672;13.548;2024-01-30T03:08:16;3.72;;;2.35;;
71083;SDS011;58741;52.672;13.548;2024-01-30T03:10:43;4.28;;;2.55;;
71083;SDS011;58741;52.672;13.548;2024-01-30T03:13:09;4.18;;;2.70;;
71083;SDS011;58741;52.672;13.548;2024-01-30T03:15:36;4.55;;;2.70;;
71083;SDS011;58741;52.672;13.548;2024-01-30T03:18:03;2.88;;;2.00;;
71083;SDS011;58741;52.672;13.548;2024-01-30T03:20:30;4.25;;;2.20;;
71083;SDS011;58741;52.672;13.548;2024-01-30T03:22:59;4.25;;;2.45;;
71083;SDS011;58741;52.672;13.548;2024-01-30T03:25:26;5.88;;;2.25;;
71083;SDS011;58741;52.672;13.548;2024-01-30T03:27:53;4.03;;;2.25;;
71083;SDS011;58741;52.672;13.548;2024-01-30T03:30:19;6.88;;;2.28;;
71083;SDS011;58741;52.672;13.548;2024-01-30T03:32:46;4.53;;;2.40;;
71083;SDS011;58741;52.672;13.548;2024-01-30T03:35:13;6.53;;;3.00;;
71083;SDS011;58741;52.672;13.548;2024-01-30T03:37:39;5.10;;;2.70;;
71083;SDS011;58741;52.672;13.548;2024-01-30T03:40:06;4.30;;;2.45;;
71083;SDS011;58741;52.672;13.548;2024-01-30T03:42:33;3.80;;;2.72;;
71083;SDS011;58741;52.672;13.548;2024-01-30T03:45:01;4.82;;;2.90;;
71083;SDS011;58741;52.672;13.548;2024-01-30T03:47:28;4.15;;;2.30;;
71083;SDS011;58741;52.672;13.548;2024-01-30T03:49:55;5.47;;;2.78;;
71083;SDS011;58741;52.672;13.548;2024-01-30T03:52:21;3.72;;;2.45;;
71083;SDS011;58741;52.672;13.548;2024-01-30T03:54:48;5.05;;;2.25;;
71083;SDS011;58741;52.672;13.548;2024-01-30T03:57:15;4.32;;;2.50;;
71083;SDS011;58741;52.672;13.548;2024-01-30T03:59:42;6.20;;;2.83;;
71083;SDS011;58741;52.672;13.548;2024-01-30T04:02:11;5.15;;;2.47;;
71083;SDS011;58741;52.672;13.548;2024-01-30T04:04:39;6.68;;;2.85;;
71083;SDS011;58741;52.672;13.548;2024-01-30T04:07:05;4.10;;;2.63;;
71083;SDS011;58741;52.672;13.548;2024-01-30T04:09:32;4.88;;;2.78;;
71083;SDS011;58741;52.672;13.548;2024-01-30T04:11:59;4.97;;;2.63;;
71083;SDS011;58741;52.672;13.548;2024-01-30T04:14:26;3.33;;;2.15;;
71083;SDS011;58741;52.672;13.548;2024-01-30T04:16:53;4.22;;;2.38;;
71083;SDS011;58741;52.672;13.548;2024-01-30T04:19:19;5.50;;;2.28;;
71083;SDS011;58741;52.672;13.548;2024-01-30T04:21:46;4.43;;;2.67;;
71083;SDS011;58741;52.672;13.548;2024-01-30T04:24:13;4.85;;;2.40;;
71083;SDS011;58741;52.672;13.548;2024-01-30T04:26:39;4.90;;;2.78;;
71083;SDS011;58741;52.672;13.548;2024-01-30T04:29:06;5.88;;;2.58;;
71083;SDS011;58741;52.672;13.548;2024-01-30T04:31:33;4.05;;;2.42;;
71083;SDS011;58741;52.672;13.548;2024-01-30T04:33:59;4.05;;;2.25;;
71083;SDS011;58741;52.672;13.548;2024-01-30T04:36:26;5.72;;;2.60;;
71083;SDS011;58741;52.672;13.548;2024-01-30T04:38:53;4.20;;;2.45;;
71083;SDS011;58741;52.672;13.548;2024-01-30T04:41:19;6.35;;;2.92;;
71083;SDS011;58741;52.672;13.548;2024-01-30T04:43:46;6.53;;;2.58;;
71083;SDS011;58741;52.672;13.548;2024-01-30T04:46:12;6.25;;;2.42;;
71083;SDS011;58741;52.672;13.548;2024-01-30T04:48:39;4.97;;;2.42;;
71083;SDS011;58741;52.672;13.548;2024-01-30T04:51:06;4.85;;;2.80;;
71083;SDS011;58741;52.672;13.548;2024-01-30T04:53:33;5.00;;;2.95;;
71083;SDS011;58741;52.672;13.548;2024-01-30T04:55:59;5.45;;;2.83;;
71083;SDS011;58741;52.672;13.548;2024-01-30T04:58:26;4.13;;;2.28;;
71083;SDS011;58741;52.672;13.548;2024-01-30T05:00:53;6.28;;;2.20;;
71083;SDS011;58741;52.672;13.548;2024-01-30T05:03:20;5.75;;;2.75;;
71083;SDS011;58741;52.672;13.548;2024-01-30T05:05:48;5.60;;;2.83;;
71083;SDS011;58741;52.672;13.548;2024-01-30T05:08:15;6.47;;;2.20;;
71083;SDS011;58741;52.672;13.548;2024-01-30T05:10:42;5.22;;;2.75;;
71083;SDS011;58741;52.672;13.548;2024-01-30T05:13:09;7.65;;;2.83;;
71083;SDS011;58741;52.672;13.548;2024-01-30T05:15:35;5.25;;;2.50;;
71083;SDS011;58741;52.672;13.548;2024-01-30T05:18:02;4.15;;;2.55;;
71083;SDS011;58741;52.672;13.548;2024-01-30T05:20:29;5.10;;;2.72;;
71083;SDS011;58741;52.672;13.548;2024-01-30T05:22:56;6.60;;;3.13;;
71083;SDS011;58741;52.672;13.548;2024-01-30T05:25:23;4.18;;;2.42;;
71083;SDS011;58741;52.672;13.548;2024-01-30T05:27:49;4.72;;;2.67;;
71083;SDS011;58741;52.672;13.548;2024-01-30T05:30:16;4.50;;;2.47;;
71083;SDS011;58741;52.672;13.548;2024-01-30T05:32:43;7.15;;;3.60;;
71083;SDS011;58741;52.672;13.548;2024-01-30T05:35:10;5.38;;;3.20;;
71083;SDS011;58741;52.672;13.548;2024-01-30T05:37:36;6.50;;;3.35;;
71083;SDS011;58741;52.672;13.548;2024-01-30T05:40:03;4.80;;;2.80;;
71083;SDS011;58741;52.672;13.548;2024-01-30T05:42:31;4.28;;;2.42;;
71083;SDS011;58741;52.672;13.548;2024-01-30T05:44:57;4.95;;;2.78;;
71083;SDS011;58741;52.672;13.548;2024-01-30T05:47:24;8.48;;;3.67;;
71083;SDS011;58741;52.672;13.548;2024-01-30T05:49:51;7.75;;;3.33;;
71083;SDS011;58741;52.672;13.548;2024-01-30T05:52:18;5.43;;;3.15;;
71083;SDS011;58741;52.672;13.548;2024-01-30T05:54:45;4.97;;;2.40;;
71083;SDS011;58741;52.672;13.548;2024-01-30T05:57:12;6.75;;;3.33;;
71083;SDS011;58741;52.672;13.548;2024-01-30T05:59:38;5.47;;;3.05;;
71083;SDS011;58741;52.672;13.548;2024-01-30T06:02:07;4.95;;;2.67;;
71083;SDS011;58741;52.672;13.548;2024-01-30T06:04:34;6.25;;;2.50;;
71083;SDS011;58741;52.672;13.548;2024-01-30T06:07:01;5.82;;;3.03;;
71083;SDS011;58741;52.672;13.548;2024-01-30T06:09:28;7.05;;;3.65;;
71083;SDS011;58741;52.672;13.548;2024-01-30T06:11:55;9.20;;;3.83;;
71083;SDS011;58741;52.672;13.548;2024-01-30T06:14:21;5.50;;;3.05;;
71083;SDS011;58741;52.672;13.548;2024-01-30T06:16:48;6.80;;;3.78;;
71083;SDS011;58741;52.672;13.548;2024-01-30T06:19:15;7.65;;;3.25;;
71083;SDS011;58741;52.672;13.548;2024-01-30T06:21:42;8.40;;;3.15;;
71083;SDS011;58741;52.672;13.548;2024-01-30T06:24:09;7.72;;;2.88;;
71083;SDS011;58741;52.672;13.548;2024-01-30T06:26:35;5.85;;;2.70;;
71083;SDS011;58741;52.672;13.548;2024-01-30T06:29:02;7.13;;;3.38;;
71083;SDS011;58741;52.672;13.548;2024-01-30T06:31:29;7.97;;;3.10;;
71083;SDS011;58741;52.672;13.548;2024-01-30T06:33:56;6.78;;;3.35;;
71083;SDS011;58741;52.672;13.548;2024-01-30T06:36:22;7.50;;;3.35;;
71083;SDS011;58741;52.672;13.548;2024-01-30T06:38:49;6.75;;;3.47;;
71083;SDS011;58741;52.672;13.548;2024-01-30T06:41:16;7.53;;;3.28;;
71083;SDS011;58741;52.672;13.548;2024-01-30T06:43:42;5.28;;;3.08;;
71083;SDS011;58741;52.672;13.548;2024-01-30T06:46:11;6.18;;;3.35;;
71083;SDS011;58741;52.672;13.548;2024-01-30T06:48:38;7.00;;;3.33;;
71083;SDS011;58741;52.672;13.548;2024-01-30T06:51:06;7.68;;;3.42;;
71083;SDS011;58741;52.672;13.548;2024-01-30T06:53:33;6.82;;;3.08;;
71083;SDS011;58741;52.672;13.548;2024-01-30T06:56:00;8.07;;;3.30;;
71083;SDS011;58741;52.672;13.548;2024-01-30T06:58:26;8.07;;;3.42;;
71083;SDS011;58741;52.672;13.548;2024-01-30T07:00:54;6.93;;;3.80;;
71083;SDS011;58741;52.672;13.548;2024-01-30T07:03:21;7.55;;;3.33;;
71083;SDS011;58741;52.672;13.548;2024-01-30T07:05:48;7.57;;;3.53;;
71083;SDS011;58741;52.672;13.548;2024-01-30T07:08:15;7.35;;;3.58;;
71083;SDS011;58741;52.672;13.548;2024-01-30T07:10:43;6.38;;;3.00;;
71083;SDS011;58741;52.672;13.548;2024-01-30T07:13:10;8.30;;;3.47;;
71083;SDS011;58741;52.672;13.548;2024-01-30T07:15:37;9.13;;;3.90;;
71083;SDS011;58741;52.672;13.548;2024-01-30T07:18:05;9.25;;;3.60;;
71083;SDS011;58741;52.672;13.548;2024-01-30T07:20:32;6.57;;;3.38;;
71083;SDS011;58741;52.672;13.548;2024-01-30T07:22:59;7.70;;;3.88;;
71083;SDS011;58741;52.672;13.548;2024-01-30T07:25:26;3.22;;;2.42;;
71083;SDS011;58741;52.672;13.548;2024-01-30T07:27:53;6.07;;;2.85;;
71083;SDS011;58741;52.672;13.548;2024-01-30T07:30:20;4.68;;;3.13;;
71083;SDS011;58741;52.672;13.548;2024-01-30T07:32:47;8.63;;;3.80;;
71083;SDS011;58741;52.672;13.548;2024-01-30T07:35:14;6.38;;;3.40;;
71083;SDS011;58741;52.672;13.548;2024-01-30T07:37:41;8.43;;;3.47;;
71083;SDS011;58741;52.672;13.548;2024-01-30T07:40:07;5.43;;;3.08;;
71083;SDS011;58741;52.672;13.548;2024-01-30T07:42:34;8.20;;;4.13;;
71083;SDS011;58741;52.672;13.548;2024-01-30T07:45:01;10.00;;;3.63;;
71083;SDS011;58741;52.672;13.548;2024-01-30T07:47:28;9.10;;;3.58;;
71083;SDS011;58741;52.672;13.548;2024-01-30T07:49:55;7.57;;;3.92;;
71083;SDS011;58741;52.672;13.548;2024-01-30T07:52:22;7.07;;;3.42;;
71083;SDS011;58741;52.672;13.548;2024-01-30T07:54:49;6.95;;;3.60;;
71083;SDS011;58741;52.672;13.548;2024-01-30T07:57:17;5.63;;;3.33;;
71083;SDS011;58741;52.672;13.548;2024-01-30T07:59:44;6.72;;;3.38;;
71083;SDS011;58741;52.672;13.548;2024-01-30T08:02:12;7.63;;;3.90;;
71083;SDS011;58741;52.672;13.548;2024-01-30T08:04:39;5.63;;;3.65;;
71083;SDS011;58741;52.672;13.548;2024-01-30T08:07:06;7.97;;;3.67;;
71083;SDS011;58741;52.672;13.548;2024-01-30T08:09:33;9.50;;;4.75;;
71083;SDS011;58741;52.672;13.548;2024-01-30T08:12:00;7.45;;;4.40;;
71083;SDS011;58741;52.672;13.548;2024-01-30T08:14:27;10.68;;;5.10;;
71083;SDS011;58741;52.672;13.548;2024-01-30T08:16:54;9.25;;;4.13;;
71083;SDS011;58741;52.672;13.548;2024-01-30T08:19:21;6.93;;;3.80;;
71083;SDS011;58741;52.672;13.548;2024-01-30T08:21:48;7.63;;;3.95;;
71083;SDS011;58741;52.672;13.548;2024-01-30T08:24:15;9.23;;;3.90;;
71083;SDS011;58741;52.672;13.548;2024-01-30T08:26:42;9.93;;;3.65;;
71083;SDS011;58741;52.672;13.548;2024-01-30T08:29:08;7.68;;;4.10;;
71083;SDS011;58741;52.672;13.548;2024-01-30T08:31:35;8.40;;;3.78;;
71083;SDS011;58741;52.672;13.548;2024-01-30T08:34:02;8.38;;;4.10;;
71083;SDS011;58741;52.672;13.548;2024-01-30T08:36:29;6.13;;;3.40;;
71083;SDS011;58741;52.672;13.548;2024-01-30T08:38:56;7.18;;;3.92;;
71083;SDS011;58741;52.672;13.548;2024-01-30T08:41:29;9.20;;;3.90;;
71083;SDS011;58741;52.672;13.548;2024-01-30T08:43:56;6.75;;;3.92;;
71083;SDS011;58741;52.672;13.548;2024-01-30T08:46:23;8.07;;;3.78;;
71083;SDS011;58741;52.672;13.548;2024-01-30T08:48:50;10.50;;;4.72;;
71083;SDS011;58741;52.672;13.548;2024-01-30T08:51:17;14.68;;;5.00;;
71083;SDS011;58741;52.672;13.548;2024-01-30T08:53:43;9.73;;;4.53;;
71083;SDS011;58741;52.672;13.548;2024-01-30T08:56:11;9.93;;;4.50;;
71083;SDS011;58741;52.672;13.548;2024-01-30T08:58:38;9.23;;;4.38;;
71083;SDS011;58741;52.672;13.548;2024-01-30T09:01:05;9.18;;;3.97;;
71083;SDS011;58741;52.672;13.548;2024-01-30T09:03:32;8.63;;;3.83;;
71083;SDS011;58741;52.672;13.548;2024-01-30T09:05:59;10.30;;;4.72;;
71083;SDS011;58741;52.672;13.548;2024-01-30T09:08:25;5.60;;;3.25;;
71083;SDS011;58741;52.672;13.548;2024-01-30T09:10:52;8.63;;;4.68;;
71083;SDS011;58741;52.672;13.548;2024-01-30T09:13:19;7.10;;;4.05;;
71083;SDS011;58741;52.672;13.548;2024-01-30T09:15:46;7.07;;;4.10;;
71083;SDS011;58741;52.672;13.548;2024-01-30T09:18:13;6.72;;;3.78;;
71083;SDS011;58741;52.672;13.548;2024-01-30T09:20:39;10.25;;;3.85;;
71083;SDS011;58741;52.672;13.548;2024-01-30T09:23:07;4.70;;;2.55;;
71083;SDS011;58741;52.672;13.548;2024-01-30T09:25:34;9.35;;;3.42;;
71083;SDS011;58741;52.672;13.548;2024-01-30T09:28:01;7.18;;;3.90;;
71083;SDS011;58741;52.672;13.548;2024-01-30T09:30:27;7.53;;;3.45;;
71083;SDS011;58741;52.672;13.548;2024-01-30T09:32:54;7.78;;;4.50;;
71083;SDS011;58741;52.672;13.548;2024-01-30T09:35:21;9.48;;;3.97;;
71083;SDS011;58741;52.672;13.548;2024-01-30T09:37:48;8.90;;;4.43;;
71083;SDS011;58741;52.672;13.548;2024-01-30T09:40:15;8.77;;;4.35;;
71083;SDS011;58741;52.672;13.548;2024-01-30T09:42:49;8.95;;;4.50;;
71083;SDS011;58741;52.672;13.548;2024-01-30T09:45:18;9.98;;;4.38;;
71083;SDS011;58741;52.672;13.548;2024-01-30T09:47:47;6.25;;;3.58;;
71083;SDS011;58741;52.672;13.548;2024-01-30T09:50:14;8.23;;;4.18;;
71083;SDS011;58741;52.672;13.548;2024-01-30T09:52:45;7.03;;;3.97;;
71083;SDS011;58741;52.672;13.548;2024-01-30T09:55:12;10.25;;;5.00;;
71083;SDS011;58741;52.672;13.548;2024-01-30T09:57:41;9.38;;;4.13;;
71083;SDS011;58741;52.672;13.548;2024-01-30T10:00:08;7.63;;;4.03;;
71083;SDS011;58741;52.672;13.548;2024-01-30T10:02:38;6.50;;;3.65;;
71083;SDS011;58741;52.672;13.548;2024-01-30T10:05:07;8.43;;;4.00;;
71083;SDS011;58741;52.672;13.548;2024-01-30T10:07:34;6.70;;;3.90;;
71083;SDS011;58741;52.672;13.548;2024-01-30T10:10:01;6.30;;;3.88;;
71083;SDS011;58741;52.672;13.548;2024-01-30T10:12:29;7.95;;;3.92;;
71083;SDS011;58741;52.672;13.548;2024-01-30T10:14:56;7.82;;;3.38;;
71083;SDS011;58741;52.672;13.548;2024-01-30T10:17:24;10.93;;;3.70;;
71083;SDS011;58741;52.672;13.548;2024-01-30T10:19:59;10.75;;;4.13;;
71083;SDS011;58741;52.672;13.548;2024-01-30T10:22:27;9.63;;;3.95;;
71083;SDS011;58741;52.672;13.548;2024-01-30T10:24:54;9.48;;;3.85;;
71083;SDS011;58741;52.672;13.548;2024-01-30T10:27:27;7.28;;;3.60;;
71083;SDS011;58741;52.672;13.548;2024-01-30T10:29:55;9.10;;;3.65;;
71083;SDS011;58741;52.672;13.548;2024-01-30T10:32:22;5.82;;;2.97;;
71083;SDS011;58741;52.672;13.548;2024-01-30T10:34:49;7.68;;;3.53;;
71083;SDS011;58741;52.672;13.548;2024-01-30T10:37:16;6.93;;;3.60;;
71083;SDS011;58741;52.672;13.548;2024-01-30T10:39:46;6.68;;;3.22;;
71083;SDS011;58741;52.672;13.548;2024-01-30T10:42:17;6.82;;;3.65;;
71083;SDS011;58741;52.672;13.548;2024-01-30T10:45:02;5.35;;;3.47;;
71083;SDS011;58741;52.672;13.548;2024-01-30T10:47:35;6.45;;;3.72;;
71083;SDS011;58741;52.672;13.548;2024-01-30T10:50:05;8.48;;;3.35;;
71083;SDS011;58741;52.672;13.548;2024-01-30T10:52:35;5.30;;;2.80;;
71083;SDS011;58741;52.672;13.548;2024-01-30T10:55:03;7.55;;;2.70;;
71083;SDS011;58741;52.672;13.548;2024-01-30T10:57:33;5.28;;;3.00;;
71083;SDS011;58741;52.672;13.548;2024-01-30T11:00:02;6.22;;;2.25;;
71083;SDS011;58741;52.672;13.548;2024-01-30T11:02:40;4.10;;;2.45;;
71083;SDS011;58741;52.672;13.548;2024-01-30T11:05:10;8.10;;;2.63;;
71083;SDS011;58741;52.672;13.548;2024-01-30T11:07:39;4.03;;;2.42;;
71083;SDS011;58741;52.672;13.548;2024-01-30T11:10:09;8.32;;;3.40;;
71083;SDS011;58741;52.672;13.548;2024-01-30T11:12:41;6.13;;;2.65;;
71083;SDS011;58741;52.672;13.548;2024-01-30T11:15:10;6.72;;;2.95;;
71083;SDS011;58741;52.672;13.548;2024-01-30T11:17:44;4.80;;;2.65;;
71083;SDS011;58741;52.672;13.548;2024-01-30T11:20:15;7.03;;;2.88;;
71083;SDS011;58741;52.672;13.548;2024-01-30T11:22:44;5.18;;;2.20;;
71083;SDS011;58741;52.672;13.548;2024-01-30T11:25:13;4.18;;;2.28;;
71083;SDS011;58741;52.672;13.548;2024-01-30T11:27:41;4.45;;;1.73;;
71083;SDS011;58741;52.672;13.548;2024-01-30T11:30:09;2.78;;;1.85;;
71083;SDS011;58741;52.672;13.548;2024-01-30T11:32:37;4.53;;;2.42;;
71083;SDS011;58741;52.672;13.548;2024-01-30T11:35:04;4.32;;;2.28;;
71083;SDS011;58741;52.672;13.548;2024-01-30T11:37:32;2.88;;;1.98;;
71083;SDS011;58741;52.672;13.548;2024-01-30T11:40:04;4.25;;;2.22;;
71083;SDS011;58741;52.672;13.548;2024-01-30T11:42:32;3.05;;;1.98;;
71083;SDS011;58741;52.672;13.548;2024-01-30T11:45:00;2.65;;;1.52;;
71083;SDS011;58741;52.672;13.548;2024-01-30T11:47:28;1.80;;;1.58;;
71083;SDS011;58741;52.672;13.548;2024-01-30T11:49:55;4.70;;;1.75;;
71083;SDS011;58741;52.672;13.548;2024-01-30T11:52:26;5.32;;;2.40;;
71083;SDS011;58741;52.672;13.548;2024-01-30T11:54:52;3.38;;;2.03;;
71083;SDS011;58741;52.672;13.548;2024-01-30T11:57:20;4.07;;;2.10;;
71083;SDS011;58741;52.672;13.548;2024-01-30T11:59:46;2.85;;;1.52;;
71083;SDS011;58741;52.672;13.548;2024-01-30T12:02:16;2.50;;;2.10;;
71083;SDS011;58741;52.672;13.548;2024-01-30T12:04:43;2.55;;;1.67;;
71083;SDS011;58741;52.672;13.548;2024-01-30T12:07:11;3.60;;;1.65;;
71083;SDS011;58741;52.672;13.548;2024-01-30T12:09:39;4.55;;;1.80;;
71083;SDS011;58741;52.672;13.548;2024-01-30T12:12:06;4.75;;;2.22;;
71083;SDS011;58741;52.672;13.548;2024-01-30T12:14:38;3.95;;;2.10;;
71083;SDS011;58741;52.672;13.548;2024-01-30T12:17:05;4.13;;;2.05;;
71083;SDS011;58741;52.672;13.548;2024-01-30T12:19:34;2.65;;;1.80;;
71083;SDS011;58741;52.672;13.548;2024-01-30T12:22:01;2.67;;;1.40;;
71083;SDS011;58741;52.672;13.548;2024-01-30T12:24:29;4.72;;;2.30;;
71083;SDS011;58741;52.672;13.548;2024-01-30T12:26:58;2.88;;;1.80;;
71083;SDS011;58741;52.672;13.548;2024-01-30T12:29:26;3.78;;;1.63;;
71083;SDS011;58741;52.672;13.548;2024-01-30T12:32:00;5.57;;;2.17;;
71083;SDS011;58741;52.672;13.548;2024-01-30T12:34:27;4.97;;;2.75;;
71083;SDS011;58741;52.672;13.548;2024-01-30T12:36:55;3.63;;;2.10;;
71083;SDS011;58741;52.672;13.548;2024-01-30T12:39:21;5.10;;;1.95;;
71083;SDS011;58741;52.672;13.548;2024-01-30T12:41:49;2.78;;;1.77;;
71083;SDS011;58741;52.672;13.548;2024-01-30T12:44:16;4.30;;;2.00;;
71083;SDS011;58741;52.672;13.548;2024-01-30T12:46:42;3.65;;;1.95;;
71083;SDS011;58741;52.672;13.548;2024-01-30T12:49:11;7.78;;;3.42;;
71083;SDS011;58741;52.672;13.548;2024-01-30T12:51:38;4.85;;;1.92;;
71083;SDS011;58741;52.672;13.548;2024-01-30T12:54:06;6.70;;;2.42;;
71083;SDS011;58741;52.672;13.548;2024-01-30T12:56:33;4.05;;;2.10;;
71083;SDS011;58741;52.672;13.548;2024-01-30T12:58:59;4.57;;;2.40;;
71083;SDS011;58741;52.672;13.548;2024-01-30T13:01:26;5.72;;;2.75;;
71083;SDS011;58741;52.672;13.548;2024-01-30T13:03:53;5.82;;;2.45;;
71083;SDS011;58741;52.672;13.548;2024-01-30T13:06:20;5.07;;;2.58;;
71083;SDS011;58741;52.672;13.548;2024-01-30T13:08:47;6.07;;;2.00;;
71083;SDS011;58741;52.672;13.548;2024-01-30T13:11:13;3.55;;;2.22;;
71083;SDS011;58741;52.672;13.548;2024-01-30T13:13:46;3.40;;;1.80;;
71083;SDS011;58741;52.672;13.548;2024-01-30T13:16:14;4.28;;;2.45;;
71083;SDS011;58741;52.672;13.548;2024-01-30T13:18:41;6.30;;;2.50;;
71083;SDS011;58741;52.672;13.548;2024-01-30T13:21:08;3.03;;;2.25;;
71083;SDS011;58741;52.672;13.548;2024-01-30T13:23:34;6.03;;;2.45;;
71083;SDS011;58741;52.672;13.548;2024-01-30T13:26:01;5.32;;;2.97;;
71083;SDS011;58741;52.672;13.548;2024-01-30T13:28:28;2.72;;;1.63;;
71083;SDS011;58741;52.672;13.548;2024-01-30T13:30:55;3.78;;;1.75;;
71083;SDS011;58741;52.672;13.548;2024-01-30T13:33:22;3.10;;;1.90;;
71083;SDS011;58741;52.672;13.548;2024-01-30T13:35:49;4.90;;;1.90;;
71083;SDS011;58741;52.672;13.548;2024-01-30T13:38:15;3.33;;;2.15;;
71083;SDS011;58741;52.672;13.548;2024-01-30T13:40:42;3.65;;;1.67;;
71083;SDS011;58741;52.672;13.548;2024-01-30T13:43:09;4.38;;;2.47;;
71083;SDS011;58741;52.672;13.548;2024-01-30T13:45:36;3.20;;;1.42;;
71083;SDS011;58741;52.672;13.548;2024-01-30T13:48:02;3.30;;;2.20;;
71083;SDS011;58741;52.672;13.548;2024-01-30T13:50:29;4.07;;;2.20;;
71083;SDS011;58741;52.672;13.548;2024-01-30T13:52:56;2.80;;;1.92;;
71083;SDS011;58741;52.672;13.548;2024-01-30T13:55:24;3.42;;;2.05;;
71083;SDS011;58741;52.672;13.548;2024-01-30T13:57:51;3.58;;;2.05;;
71083;SDS011;58741;52.672;13.548;2024-01-30T14:00:18;3.72;;;1.60;;
71083;SDS011;58741;52.672;13.548;2024-01-30T14:02:46;3.42;;;1.50;;
71083;SDS011;58741;52.672;13.548;2024-01-30T14:05:13;2.40;;;1.63;;
71083;SDS011;58741;52.672;13.548;2024-01-30T14:07:41;2.85;;;1.67;;
71083;SDS011;58741;52.672;13.548;2024-01-30T14:10:10;2.97;;;1.98;;
71083;SDS011;58741;52.672;13.548;2024-01-30T14:12:41;4.15;;;1.73;;
71083;SDS011;58741;52.672;13.548;2024-01-30T14:15:09;5.32;;;1.65;;
71083;SDS011;58741;52.672;13.548;2024-01-30T14:17:52;4.82;;;2.00;;
71083;SDS011;58741;52.672;13.548;2024-01-30T14:20:19;3.15;;;1.48;;
71083;SDS011;58741;52.672;13.548;2024-01-30T14:22:46;2.92;;;1.50;;
71083;SDS011;58741;52.672;13.548;2024-01-30T14:25:13;3.85;;;1.45;;
71083;SDS011;58741;52.672;13.548;2024-01-30T14:27:40;3.63;;;2.13;;
71083;SDS011;58741;52.672;13.548;2024-01-30T14:30:08;3.33;;;2.03;;
71083;SDS011;58741;52.672;13.548;2024-01-30T14:32:36;4.55;;;2.25;;
71083;SDS011;58741;52.672;13.548;2024-01-30T14:35:04;3.65;;;1.60;;